Terminal Aerodrome Forecast
Issued by NWS

Home | Current Version | Previous Version | Text Only | Print | Product List | Glossary On
Versions: 1 2 3 4 5 6 7 8 9 10 11 12 13 14 15 16 17 18 19 20 21 22 23 24 25 26 27
000
FTUS43 KLSX 010400 AAA
TAFSUS
TAF AMD
KSUS 010416Z 0104/0124 VRB03KT 1SM -SN OVC015
     FM011300 27004KT 3SM -SN BR OVC010
     FM011800 34005KT 6SM -SN OVC015
     FM012100 33005KT P6SM OVC018=

USA.gov is the U.S. government's official web portal to all federal, state and local government web resources and services.